sensor_id;sensor_type;location;lat;lon;timestamp;pressure;altitude;pressure_sealevel;temperature;humidity
51999;BME280;38015;50.924;11.598;2023-02-19T00:00:37;99500.27;;;22.33;29.02
51999;BME280;38015;50.924;11.598;2023-02-19T00:03:08;99498.78;;;22.34;29.01
51999;BME280;38015;50.924;11.598;2023-02-19T00:05:38;99492.87;;;22.32;29.04
51999;BME280;38015;50.924;11.598;2023-02-19T00:08:09;99485.78;;;22.27;29.13
51999;BME280;38015;50.924;11.598;2023-02-19T00:10:39;99479.07;;;22.27;29.13
51999;BME280;38015;50.924;11.598;2023-02-19T00:13:10;99477.30;;;22.26;29.15
51999;BME280;38015;50.924;11.598;2023-02-19T00:15:40;99476.81;;;22.26;29.16
51999;BME280;38015;50.924;11.598;2023-02-19T00:18:10;99469.35;;;22.27;29.13
51999;BME280;38015;50.924;11.598;2023-02-19T00:20:43;99462.79;;;22.33;29.05
51999;BME280;38015;50.924;11.598;2023-02-19T00:23:12;99453.34;;;22.30;29.10
51999;BME280;38015;50.924;11.598;2023-02-19T00:25:42;99450.75;;;22.24;29.21
51999;BME280;38015;50.924;11.598;2023-02-19T00:28:12;99446.83;;;22.33;29.06
51999;BME280;38015;50.924;11.598;2023-02-19T00:30:43;99449.89;;;22.24;29.23
51999;BME280;38015;50.924;11.598;2023-02-19T00:33:14;99443.84;;;22.07;29.54
51999;BME280;38015;50.924;11.598;2023-02-19T00:35:44;99437.13;;;22.11;29.51
51999;BME280;38015;50.924;11.598;2023-02-19T00:38:15;99433.28;;;22.23;29.29
51999;BME280;38015;50.924;11.598;2023-02-19T00:40:45;99429.24;;;22.22;29.33
51999;BME280;38015;50.924;11.598;2023-02-19T00:43:15;99424.80;;;22.23;29.35
51999;BME280;38015;50.924;11.598;2023-02-19T00:45:46;99422.55;;;22.23;29.35
51999;BME280;38015;50.924;11.598;2023-02-19T00:48:16;99418.98;;;22.03;29.74
51999;BME280;38015;50.924;11.598;2023-02-19T00:50:47;99410.86;;;22.16;29.50
51999;BME280;38015;50.924;11.598;2023-02-19T00:53:18;99404.98;;;22.17;29.48
51999;BME280;38015;50.924;11.598;2023-02-19T00:55:48;99397.58;;;22.25;29.33
51999;BME280;38015;50.924;11.598;2023-02-19T00:58:18;99389.42;;;22.11;29.60
51999;BME280;38015;50.924;11.598;2023-02-19T01:00:48;99379.30;;;22.10;29.62
51999;BME280;38015;50.924;11.598;2023-02-19T01:03:19;99372.58;;;22.13;29.64
51999;BME280;38015;50.924;11.598;2023-02-19T01:05:50;99359.86;;;22.13;29.61
51999;BME280;38015;50.924;11.598;2023-02-19T01:08:20;99358.46;;;22.07;29.79
51999;BME280;38015;50.924;11.598;2023-02-19T01:10:51;99358.67;;;22.24;29.45
51999;BME280;38015;50.924;11.598;2023-02-19T01:13:21;99356.70;;;22.21;29.52
51999;BME280;38015;50.924;11.598;2023-02-19T01:15:53;99358.80;;;22.25;29.48
51999;BME280;38015;50.924;11.598;2023-02-19T01:18:22;99353.08;;;22.25;29.46
51999;BME280;38015;50.924;11.598;2023-02-19T01:20:52;99355.12;;;22.34;29.32
51999;BME280;38015;50.924;11.598;2023-02-19T01:23:23;99354.17;;;22.24;29.51
51999;BME280;38015;50.924;11.598;2023-02-19T01:25:53;99348.53;;;22.26;29.50
51999;BME280;38015;50.924;11.598;2023-02-19T01:28:25;99356.21;;;22.21;29.58
51999;BME280;38015;50.924;11.598;2023-02-19T01:30:54;99348.76;;;22.31;29.41
51999;BME280;38015;50.924;11.598;2023-02-19T01:33:25;99331.02;;;22.32;29.38
51999;BME280;38015;50.924;11.598;2023-02-19T01:35:56;99322.74;;;22.28;29.44
51999;BME280;38015;50.924;11.598;2023-02-19T01:38:26;99322.96;;;22.29;29.46
51999;BME280;38015;50.924;11.598;2023-02-19T01:40:57;99318.10;;;22.25;29.55
51999;BME280;38015;50.924;11.598;2023-02-19T01:43:27;99313.27;;;22.35;29.34
51999;BME280;38015;50.924;11.598;2023-02-19T01:45:57;99307.01;;;22.21;29.60
51999;BME280;38015;50.924;11.598;2023-02-19T01:48:33;99302.92;;;22.22;29.60
51999;BME280;38015;50.924;11.598;2023-02-19T01:51:04;99297.73;;;22.26;29.51
51999;BME280;38015;50.924;11.598;2023-02-19T01:53:35;99292.84;;;22.33;29.37
51999;BME280;38015;50.924;11.598;2023-02-19T01:56:01;99295.24;;;22.24;29.52
51999;BME280;38015;50.924;11.598;2023-02-19T01:58:34;99296.17;;;22.30;29.45
51999;BME280;38015;50.924;11.598;2023-02-19T02:01:02;99290.42;;;22.10;29.77
51999;BME280;38015;50.924;11.598;2023-02-19T02:03:31;99287.11;;;22.31;29.40
51999;BME280;38015;50.924;11.598;2023-02-19T02:06:06;99277.76;;;22.25;29.51
51999;BME280;38015;50.924;11.598;2023-02-19T02:08:32;99268.86;;;22.32;29.38
51999;BME280;38015;50.924;11.598;2023-02-19T02:11:02;99267.57;;;22.30;29.41
51999;BME280;38015;50.924;11.598;2023-02-19T02:13:34;99270.10;;;22.24;29.54
51999;BME280;38015;50.924;11.598;2023-02-19T02:16:14;99271.72;;;22.23;29.58
51999;BME280;38015;50.924;11.598;2023-02-19T02:18:41;99271.18;;;22.27;29.48
51999;BME280;38015;50.924;11.598;2023-02-19T02:23:45;99266.16;;;22.30;29.41
51999;BME280;38015;50.924;11.598;2023-02-19T02:31:08;99246.31;;;22.23;29.54
51999;BME280;38015;50.924;11.598;2023-02-19T02:33:41;99251.44;;;22.32;29.35
51999;BME280;38015;50.924;11.598;2023-02-19T02:36:09;99246.40;;;22.28;29.45
51999;BME280;38015;50.924;11.598;2023-02-19T02:38:41;99237.39;;;22.18;29.60
51999;BME280;38015;50.924;11.598;2023-02-19T02:41:08;99243.63;;;22.29;29.43
51999;BME280;38015;50.924;11.598;2023-02-19T02:43:38;99236.22;;;22.21;29.55
51999;BME280;38015;50.924;11.598;2023-02-19T02:46:10;99223.38;;;22.16;29.64
51999;BME280;38015;50.924;11.598;2023-02-19T02:48:41;99222.77;;;22.26;29.49
51999;BME280;38015;50.924;11.598;2023-02-19T02:51:15;99223.64;;;22.12;29.73
51999;BME280;38015;50.924;11.598;2023-02-19T02:53:45;99226.81;;;22.16;29.64
51999;BME280;38015;50.924;11.598;2023-02-19T02:56:11;99233.02;;;22.17;29.63
51999;BME280;38015;50.924;11.598;2023-02-19T02:58:41;99231.90;;;22.17;29.61
51999;BME280;38015;50.924;11.598;2023-02-19T03:01:17;99221.47;;;22.19;29.58
51999;BME280;38015;50.924;11.598;2023-02-19T03:03:49;99225.19;;;22.19;29.56
51999;BME280;38015;50.924;11.598;2023-02-19T03:06:16;99218.19;;;22.30;29.39
51999;BME280;38015;50.924;11.598;2023-02-19T03:08:50;99219.45;;;22.21;29.42
51999;BME280;38015;50.924;11.598;2023-02-19T03:11:13;99226.19;;;22.08;29.73
51999;BME280;38015;50.924;11.598;2023-02-19T03:13:43;99223.18;;;22.27;29.40
51999;BME280;38015;50.924;11.598;2023-02-19T03:16:16;99215.17;;;22.27;29.38
51999;BME280;38015;50.924;11.598;2023-02-19T03:18:47;99213.90;;;22.28;29.37
51999;BME280;38015;50.924;11.598;2023-02-19T03:21:16;99213.43;;;22.31;29.30
51999;BME280;38015;50.924;11.598;2023-02-19T03:23:46;99207.78;;;22.28;29.35
51999;BME280;38015;50.924;11.598;2023-02-19T03:26:16;99208.96;;;22.34;29.22
51999;BME280;38015;50.924;11.598;2023-02-19T03:28:50;99211.11;;;22.23;29.44
51999;BME280;38015;50.924;11.598;2023-02-19T03:31:19;99209.72;;;22.29;29.31
51999;BME280;38015;50.924;11.598;2023-02-19T03:33:51;99211.21;;;22.29;29.33
51999;BME280;38015;50.924;11.598;2023-02-19T03:36:18;99206.88;;;22.21;29.47
51999;BME280;38015;50.924;11.598;2023-02-19T03:38:50;99212.57;;;22.27;29.34
51999;BME280;38015;50.924;11.598;2023-02-19T03:41:24;99205.33;;;22.30;29.25
51999;BME280;38015;50.924;11.598;2023-02-19T03:43:55;99208.76;;;22.33;29.22
51999;BME280;38015;50.924;11.598;2023-02-19T03:46:26;99198.30;;;22.35;29.16
51999;BME280;38015;50.924;11.598;2023-02-19T03:48:53;99197.42;;;22.32;29.22
51999;BME280;38015;50.924;11.598;2023-02-19T03:51:29;99206.39;;;22.27;29.32
51999;BME280;38015;50.924;11.598;2023-02-19T03:53:58;99203.06;;;22.30;29.27
51999;BME280;38015;50.924;11.598;2023-02-19T03:56:27;99205.97;;;22.36;29.14
51999;BME280;38015;50.924;11.598;2023-02-19T03:58:55;99196.52;;;22.31;29.18
51999;BME280;38015;50.924;11.598;2023-02-19T04:01:26;99196.34;;;22.35;29.13
51999;BME280;38015;50.924;11.598;2023-02-19T04:03:58;99186.78;;;22.30;29.21
51999;BME280;38015;50.924;11.598;2023-02-19T04:06:27;99195.76;;;22.27;29.27
51999;BME280;38015;50.924;11.598;2023-02-19T04:08:58;99200.01;;;22.23;29.35
51999;BME280;38015;50.924;11.598;2023-02-19T04:11:25;99207.14;;;22.27;29.21
51999;BME280;38015;50.924;11.598;2023-02-19T04:14:00;99205.03;;;22.28;29.05
51999;BME280;38015;50.924;11.598;2023-02-19T04:16:27;99206.45;;;22.29;29.20
51999;BME280;38015;50.924;11.598;2023-02-19T04:19:01;99212.31;;;22.36;29.08
51999;BME280;38015;50.924;11.598;2023-02-19T04:21:30;99216.81;;;22.29;29.18
51999;BME280;38015;50.924;11.598;2023-02-19T04:23:59;99211.06;;;22.27;29.16
51999;BME280;38015;50.924;11.598;2023-02-19T04:26:27;99219.51;;;22.16;29.39
51999;BME280;38015;50.924;11.598;2023-02-19T04:28:57;99209.40;;;22.12;29.42
51999;BME280;38015;50.924;11.598;2023-02-19T04:31:30;99212.90;;;22.28;29.13
51999;BME280;38015;50.924;11.598;2023-02-19T04:33:58;99213.75;;;22.27;29.12
51999;BME280;38015;50.924;11.598;2023-02-19T04:36:29;99217.91;;;22.28;29.14
51999;BME280;38015;50.924;11.598;2023-02-19T04:38:59;99215.14;;;22.19;29.30
51999;BME280;38015;50.924;11.598;2023-02-19T04:41:30;99220.00;;;22.23;29.20
51999;BME280;38015;50.924;11.598;2023-02-19T04:44:01;99230.01;;;22.22;29.13
51999;BME280;38015;50.924;11.598;2023-02-19T04:46:30;99221.87;;;22.18;29.26
51999;BME280;38015;50.924;11.598;2023-02-19T04:49:01;99225.51;;;22.20;29.24
51999;BME280;38015;50.924;11.598;2023-02-19T04:51:32;99229.21;;;22.30;28.97
51999;BME280;38015;50.924;11.598;2023-02-19T04:54:02;99232.41;;;22.31;28.93
51999;BME280;38015;50.924;11.598;2023-02-19T04:56:32;99231.38;;;22.34;28.94
51999;BME280;38015;50.924;11.598;2023-02-19T04:59:03;99232.37;;;22.44;28.71
51999;BME280;38015;50.924;11.598;2023-02-19T05:01:33;99235.02;;;22.28;28.94
51999;BME280;38015;50.924;11.598;2023-02-19T05:04:04;99238.47;;;22.27;29.06
51999;BME280;38015;50.924;11.598;2023-02-19T05:06:34;99239.38;;;22.37;28.90
51999;BME280;38015;50.924;11.598;2023-02-19T05:09:05;99239.91;;;22.24;29.15
51999;BME280;38015;50.924;11.598;2023-02-19T05:11:35;99238.04;;;22.29;28.96
51999;BME280;38015;50.924;11.598;2023-02-19T05:14:06;99229.43;;;22.31;28.89
51999;BME280;38015;50.924;11.598;2023-02-19T05:16:36;99241.12;;;22.33;28.87
51999;BME280;38015;50.924;11.598;2023-02-19T05:19:09;99248.52;;;22.38;28.77
51999;BME280;38015;50.924;11.598;2023-02-19T05:21:37;99249.18;;;22.34;28.85
51999;BME280;38015;50.924;11.598;2023-02-19T05:24:08;99258.38;;;22.29;28.99
51999;BME280;38015;50.924;11.598;2023-02-19T05:26:39;99269.74;;;22.35;28.86
51999;BME280;38015;50.924;11.598;2023-02-19T05:29:08;99262.72;;;22.34;28.88
51999;BME280;38015;50.924;11.598;2023-02-19T05:31:39;99275.64;;;22.33;28.90
51999;BME280;38015;50.924;11.598;2023-02-19T05:34:09;99291.88;;;22.26;28.95
51999;BME280;38015;50.924;11.598;2023-02-19T05:36:40;99287.02;;;22.12;28.99
51999;BME280;38015;50.924;11.598;2023-02-19T05:39:11;99296.76;;;22.23;28.94
51999;BME280;38015;50.924;11.598;2023-02-19T05:41:41;99305.85;;;22.18;28.92
51999;BME280;38015;50.924;11.598;2023-02-19T05:44:11;99316.92;;;22.21;28.91
51999;BME280;38015;50.924;11.598;2023-02-19T05:46:42;99320.36;;;22.31;28.77
51999;BME280;38015;50.924;11.598;2023-02-19T05:49:12;99324.75;;;22.20;28.75
51999;BME280;38015;50.924;11.598;2023-02-19T05:51:44;99334.91;;;22.30;28.61
51999;BME280;38015;50.924;11.598;2023-02-19T05:54:15;99338.88;;;22.32;28.50
51999;BME280;38015;50.924;11.598;2023-02-19T05:56:44;99342.78;;;22.18;28.93
51999;BME280;38015;50.924;11.598;2023-02-19T05:59:16;99349.31;;;22.02;29.18
51999;BME280;38015;50.924;11.598;2023-02-19T06:01:47;99352.39;;;22.10;29.11
51999;BME280;38015;50.924;11.598;2023-02-19T06:04:15;99350.06;;;22.18;28.69
51999;BME280;38015;50.924;11.598;2023-02-19T06:06:46;99345.91;;;22.32;28.70
51999;BME280;38015;50.924;11.598;2023-02-19T06:09:16;99348.04;;;22.26;28.79
51999;BME280;38015;50.924;11.598;2023-02-19T06:11:46;99338.98;;;22.14;29.00
51999;BME280;38015;50.924;11.598;2023-02-19T06:14:17;99339.62;;;22.00;29.25
51999;BME280;38015;50.924;11.598;2023-02-19T06:16:49;99335.24;;;22.18;29.00
51999;BME280;38015;50.924;11.598;2023-02-19T06:19:18;99340.42;;;22.26;28.89
51999;BME280;38015;50.924;11.598;2023-02-19T06:21:49;99340.18;;;22.24;28.89
51999;BME280;38015;50.924;11.598;2023-02-19T06:24:19;99335.53;;;22.16;29.07
51999;BME280;38015;50.924;11.598;2023-02-19T06:26:49;99340.78;;;22.21;29.02
51999;BME280;38015;50.924;11.598;2023-02-19T06:29:20;99343.83;;;22.18;29.06
51999;BME280;38015;50.924;11.598;2023-02-19T06:31:50;99347.04;;;22.18;29.04
51999;BME280;38015;50.924;11.598;2023-02-19T06:34:21;99356.28;;;22.19;28.92
51999;BME280;38015;50.924;11.598;2023-02-19T06:36:51;99356.28;;;22.22;28.85
51999;BME280;38015;50.924;11.598;2023-02-19T06:39:22;99364.30;;;22.15;29.07
51999;BME280;38015;50.924;11.598;2023-02-19T06:41:54;99367.72;;;22.09;29.17
51999;BME280;38015;50.924;11.598;2023-02-19T06:44:23;99377.07;;;22.18;29.06
51999;BME280;38015;50.924;11.598;2023-02-19T06:46:54;99372.92;;;22.30;28.83
51999;BME280;38015;50.924;11.598;2023-02-19T06:49:23;99372.21;;;22.26;28.86
51999;BME280;38015;50.924;11.598;2023-02-19T06:51:55;99372.60;;;22.21;29.00
51999;BME280;38015;50.924;11.598;2023-02-19T06:54:26;99377.48;;;22.13;29.08
51999;BME280;38015;50.924;11.598;2023-02-19T06:56:55;99380.14;;;22.26;28.84
51999;BME280;38015;50.924;11.598;2023-02-19T06:59:26;99383.86;;;22.23;28.99
51999;BME280;38015;50.924;11.598;2023-02-19T07:01:56;99388.83;;;22.22;28.94
51999;BME280;38015;50.924;11.598;2023-02-19T07:04:26;99385.93;;;22.19;29.02
51999;BME280;38015;50.924;11.598;2023-02-19T07:06:57;99394.94;;;22.29;28.73
51999;BME280;38015;50.924;11.598;2023-02-19T07:09:29;99396.34;;;22.26;28.77
51999;BME280;38015;50.924;11.598;2023-02-19T07:11:58;99403.43;;;22.24;28.98
51999;BME280;38015;50.924;11.598;2023-02-19T07:14:28;99404.28;;;22.22;28.98
51999;BME280;38015;50.924;11.598;2023-02-19T07:17:00;99403.20;;;22.23;28.84
51999;BME280;38015;50.924;11.598;2023-02-19T07:19:29;99409.91;;;22.24;29.00
51999;BME280;38015;50.924;11.598;2023-02-19T07:21:59;99408.03;;;22.20;28.95
51999;BME280;38015;50.924;11.598;2023-02-19T07:24:30;99412.23;;;22.17;28.95
51999;BME280;38015;50.924;11.598;2023-02-19T07:27:00;99418.59;;;22.21;28.88
51999;BME280;38015;50.924;11.598;2023-02-19T07:29:31;99422.37;;;22.23;28.89
51999;BME280;38015;50.924;11.598;2023-02-19T07:32:01;99424.80;;;22.20;28.92
51999;BME280;38015;50.924;11.598;2023-02-19T07:34:34;99426.36;;;22.26;28.86
51999;BME280;38015;50.924;11.598;2023-02-19T07:37:03;99433.88;;;22.10;29.13
51999;BME280;38015;50.924;11.598;2023-02-19T07:39:33;99445.03;;;22.27;28.82
51999;BME280;38015;50.924;11.598;2023-02-19T07:42:03;99447.68;;;22.19;29.00
51999;BME280;38015;50.924;11.598;2023-02-19T07:44:34;99450.42;;;22.26;28.81
51999;BME280;38015;50.924;11.598;2023-02-19T07:47:06;99455.12;;;22.30;28.68
51999;BME280;38015;50.924;11.598;2023-02-19T07:49:35;99455.47;;;22.30;28.76
51999;BME280;38015;50.924;11.598;2023-02-19T07:52:06;99460.39;;;22.27;28.87
51999;BME280;38015;50.924;11.598;2023-02-19T07:54:35;99466.37;;;22.26;28.70
51999;BME280;38015;50.924;11.598;2023-02-19T07:57:06;99459.06;;;22.30;28.81
51999;BME280;38015;50.924;11.598;2023-02-19T07:59:36;99469.26;;;22.26;28.89
51999;BME280;38015;50.924;11.598;2023-02-19T08:02:15;99472.80;;;22.32;28.63
51999;BME280;38015;50.924;11.598;2023-02-19T08:04:37;99472.66;;;22.41;28.57
51999;BME280;38015;50.924;11.598;2023-02-19T08:07:08;99472.56;;;22.45;28.54
51999;BME280;38015;50.924;11.598;2023-02-19T08:09:38;99481.52;;;22.48;28.46
51999;BME280;38015;50.924;11.598;2023-02-19T08:12:10;99487.52;;;22.42;28.54
51999;BME280;38015;50.924;11.598;2023-02-19T08:14:39;99491.69;;;22.46;28.47
51999;BME280;38015;50.924;11.598;2023-02-19T08:17:10;99493.95;;;22.43;28.60
51999;BME280;38015;50.924;11.598;2023-02-19T08:19:40;99495.85;;;22.43;28.53
51999;BME280;38015;50.924;11.598;2023-02-19T08:22:11;99499.19;;;22.37;28.58
51999;BME280;38015;50.924;11.598;2023-02-19T08:24:41;99494.77;;;22.35;28.62
51999;BME280;38015;50.924;11.598;2023-02-19T08:27:12;99499.36;;;22.30;28.63
51999;BME280;38015;50.924;11.598;2023-02-19T08:29:42;99504.14;;;22.41;28.46
51999;BME280;38015;50.924;11.598;2023-02-19T08:32:12;99504.60;;;22.30;28.80
51999;BME280;38015;50.924;11.598;2023-02-19T08:34:43;99512.01;;;22.41;28.50
51999;BME280;38015;50.924;11.598;2023-02-19T08:37:14;99514.89;;;22.27;28.79
51999;BME280;38015;50.924;11.598;2023-02-19T08:39:44;99520.30;;;22.42;28.60
51999;BME280;38015;50.924;11.598;2023-02-19T08:42:14;99526.59;;;22.35;28.62
51999;BME280;38015;50.924;11.598;2023-02-19T08:44:45;99529.78;;;22.43;28.56
51999;BME280;38015;50.924;11.598;2023-02-19T08:47:16;99537.70;;;22.43;28.48
51999;BME280;38015;50.924;11.598;2023-02-19T08:49:47;99535.60;;;22.32;28.69
51999;BME280;38015;50.924;11.598;2023-02-19T08:52:16;99536.21;;;22.21;28.99
51999;BME280;38015;50.924;11.598;2023-02-19T08:54:47;99541.80;;;22.34;28.73
51999;BME280;38015;50.924;11.598;2023-02-19T08:57:17;99547.65;;;22.29;28.82
51999;BME280;38015;50.924;11.598;2023-02-19T08:59:48;99572.45;;;22.26;28.98
51999;BME280;38015;50.924;11.598;2023-02-19T09:02:18;99568.61;;;22.36;28.87
51999;BME280;38015;50.924;11.598;2023-02-19T09:04:48;99585.78;;;22.28;28.97
51999;BME280;38015;50.924;11.598;2023-02-19T09:07:19;99614.62;;;22.44;28.71
51999;BME280;38015;50.924;11.598;2023-02-19T09:09:49;99606.07;;;22.45;28.67
51999;BME280;38015;50.924;11.598;2023-02-19T09:12:20;99634.14;;;22.27;29.00
51999;BME280;38015;50.924;11.598;2023-02-19T09:14:50;99631.91;;;22.29;28.98
51999;BME280;38015;50.924;11.598;2023-02-19T09:17:21;99650.38;;;22.16;29.19
51999;BME280;38015;50.924;11.598;2023-02-19T09:19:51;99673.24;;;22.14;29.24
51999;BME280;38015;50.924;11.598;2023-02-19T09:22:22;99680.50;;;22.34;28.87
51999;BME280;38015;50.924;11.598;2023-02-19T09:24:52;99689.97;;;22.33;28.88
51999;BME280;38015;50.924;11.598;2023-02-19T09:27:23;99694.91;;;22.07;29.29
51999;BME280;38015;50.924;11.598;2023-02-19T09:29:53;99681.58;;;22.32;28.88
51999;BME280;38015;50.924;11.598;2023-02-19T09:32:24;99680.03;;;22.35;28.79
51999;BME280;38015;50.924;11.598;2023-02-19T09:34:54;99693.20;;;22.29;28.87
51999;BME280;38015;50.924;11.598;2023-02-19T09:37:25;99703.22;;;22.34;28.81
51999;BME280;38015;50.924;11.598;2023-02-19T09:39:55;99711.57;;;22.37;28.73
51999;BME280;38015;50.924;11.598;2023-02-19T09:42:27;99718.99;;;22.27;28.89
51999;BME280;38015;50.924;11.598;2023-02-19T09:44:58;99718.47;;;22.29;28.83
51999;BME280;38015;50.924;11.598;2023-02-19T09:47:28;99718.81;;;22.35;28.74
51999;BME280;38015;50.924;11.598;2023-02-19T09:50:00;99730.73;;;22.34;28.74
51999;BME280;38015;50.924;11.598;2023-02-19T09:52:34;99740.20;;;22.28;28.84
51999;BME280;38015;50.924;11.598;2023-02-19T09:55:02;99745.20;;;22.29;28.82
51999;BME280;38015;50.924;11.598;2023-02-19T09:57:31;99756.47;;;22.30;28.77
51999;BME280;38015;50.924;11.598;2023-02-19T10:00:04;99759.78;;;22.34;28.73
51999;BME280;38015;50.924;11.598;2023-02-19T10:02:30;99762.58;;;22.32;28.77
51999;BME280;38015;50.924;11.598;2023-02-19T10:05:00;99761.90;;;22.33;28.74
51999;BME280;38015;50.924;11.598;2023-02-19T10:07:36;99765.05;;;22.37;28.63
51999;BME280;38015;50.924;11.598;2023-02-19T10:10:12;99770.07;;;22.37;28.59
51999;BME280;38015;50.924;11.598;2023-02-19T10:12:31;99768.10;;;22.14;28.96
51999;BME280;38015;50.924;11.598;2023-02-19T10:15:09;99777.30;;;22.31;28.71
51999;BME280;38015;50.924;11.598;2023-02-19T10:17:32;99782.27;;;22.32;28.64
51999;BME280;38015;50.924;11.598;2023-02-19T10:20:03;99798.95;;;22.40;28.46
51999;BME280;38015;50.924;11.598;2023-02-19T10:22:37;99805.56;;;22.39;28.40
51999;BME280;38015;50.924;11.598;2023-02-19T10:25:04;99810.30;;;22.33;28.51
51999;BME280;38015;50.924;11.598;2023-02-19T10:27:34;99816.50;;;22.38;28.41
51999;BME280;38015;50.924;11.598;2023-02-19T10:30:05;99824.02;;;22.33;28.47
51999;BME280;38015;50.924;11.598;2023-02-19T10:32:35;99827.52;;;22.35;28.39
51999;BME280;38015;50.924;11.598;2023-02-19T10:35:10;99840.06;;;22.29;28.47
51999;BME280;38015;50.924;11.598;2023-02-19T10:37:41;99851.57;;;22.37;28.33
51999;BME280;38015;50.924;11.598;2023-02-19T10:40:13;99853.63;;;22.39;28.30
51999;BME280;38015;50.924;11.598;2023-02-19T10:42:43;99863.51;;;22.20;28.62
51999;BME280;38015;50.924;11.598;2023-02-19T10:45:17;99871.38;;;22.32;28.40
51999;BME280;38015;50.924;11.598;2023-02-19T10:47:44;99879.22;;;22.38;28.26
51999;BME280;38015;50.924;11.598;2023-02-19T10:50:19;99882.57;;;22.36;28.28
51999;BME280;38015;50.924;11.598;2023-02-19T10:52:40;99890.37;;;22.35;28.23
51999;BME280;38015;50.924;11.598;2023-02-19T10:55:15;99892.20;;;22.33;28.22
51999;BME280;38015;50.924;11.598;2023-02-19T10:57:39;99899.08;;;22.31;28.22
51999;BME280;38015;50.924;11.598;2023-02-19T11:00:18;99901.91;;;22.31;28.21
51999;BME280;38015;50.924;11.598;2023-02-19T11:02:41;99902.94;;;22.35;28.09
51999;BME280;38015;50.924;11.598;2023-02-19T11:05:17;99902.41;;;22.31;28.13
51999;BME280;38015;50.924;11.598;2023-02-19T11:07:45;99912.03;;;22.33;28.03
51999;BME280;38015;50.924;11.598;2023-02-19T11:10:19;99917.32;;;22.27;28.15
51999;BME280;38015;50.924;11.598;2023-02-19T11:12:48;99920.30;;;22.36;28.00
51999;BME280;38015;50.924;11.598;2023-02-19T11:15:21;99925.15;;;22.32;28.08
51999;BME280;38015;50.924;11.598;2023-02-19T11:17:43;99929.86;;;22.26;28.20
51999;BME280;38015;50.924;11.598;2023-02-19T11:20:15;99936.02;;;22.38;27.98
51999;BME280;38015;50.924;11.598;2023-02-19T11:22:44;99936.73;;;22.35;28.02
51999;BME280;38015;50.924;11.598;2023-02-19T11:25:20;99943.50;;;22.32;28.08
51999;BME280;38015;50.924;11.598;2023-02-19T11:27:54;99952.71;;;22.19;28.32
51999;BME280;38015;50.924;11.598;2023-02-19T11:32:47;99955.10;;;22.36;28.01
51999;BME280;38015;50.924;11.598;2023-02-19T11:35:18;99954.11;;;22.26;28.20
51999;BME280;38015;50.924;11.598;2023-02-19T11:37:54;99952.19;;;22.28;28.14
51999;BME280;38015;50.924;11.598;2023-02-19T11:40:17;99957.56;;;22.39;27.97
51999;BME280;38015;50.924;11.598;2023-02-19T11:42:49;99956.94;;;22.43;27.91
51999;BME280;38015;50.924;11.598;2023-02-19T11:45:28;99961.47;;;22.36;28.02
51999;BME280;38015;50.924;11.598;2023-02-19T11:48:03;99965.07;;;22.22;28.27
51999;BME280;38015;50.924;11.598;2023-02-19T11:50:21;99957.39;;;22.36;28.05
51999;BME280;38015;50.924;11.598;2023-02-19T11:53:02;99955.19;;;22.39;27.98
51999;BME280;38015;50.924;11.598;2023-02-19T11:55:30;99947.54;;;22.39;27.98
51999;BME280;38015;50.924;11.598;2023-02-19T11:57:57;99944.59;;;22.39;27.99
51999;BME280;38015;50.924;11.598;2023-02-19T12:00:24;99948.74;;;22.39;28.01
51999;BME280;38015;50.924;11.598;2023-02-19T12:05:29;99951.30;;;22.28;28.22
51999;BME280;38015;50.924;11.598;2023-02-19T12:10:31;99949.27;;;22.24;28.27
51999;BME280;38015;50.924;11.598;2023-02-19T12:13:02;99948.52;;;22.37;28.05
51999;BME280;38015;50.924;11.598;2023-02-19T12:15:31;99953.98;;;22.32;28.17
51999;BME280;38015;50.924;11.598;2023-02-19T12:18:10;99964.21;;;22.38;28.05
51999;BME280;38015;50.924;11.598;2023-02-19T12:20:32;99969.76;;;22.40;28.00
51999;BME280;38015;50.924;11.598;2023-02-19T12:25:40;99976.31;;;22.30;28.20
51999;BME280;38015;50.924;11.598;2023-02-19T12:30:41;99975.37;;;22.29;28.25
51999;BME280;38015;50.924;11.598;2023-02-19T12:33:12;99971.79;;;22.42;28.01
51999;BME280;38015;50.924;11.598;2023-02-19T12:35:42;99981.85;;;22.19;28.38
51999;BME280;38015;50.924;11.598;2023-02-19T12:38:10;99980.03;;;22.43;28.00
51999;BME280;38015;50.924;11.598;2023-02-19T12:40:42;99977.02;;;22.40;28.04
51999;BME280;38015;50.924;11.598;2023-02-19T12:43:08;99976.05;;;22.33;28.16
51999;BME280;38015;50.924;11.598;2023-02-19T12:45:34;99979.39;;;22.31;28.19
51999;BME280;38015;50.924;11.598;2023-02-19T12:48:03;99981.13;;;22.32;28.23
51999;BME280;38015;50.924;11.598;2023-02-19T12:50:31;99988.65;;;22.37;28.11
51999;BME280;38015;50.924;11.598;2023-02-19T12:53:07;99992.09;;;22.33;28.17
51999;BME280;38015;50.924;11.598;2023-02-19T12:55:34;99986.99;;;22.38;28.08
51999;BME280;38015;50.924;11.598;2023-02-19T12:58:04;99990.40;;;22.37;28.10
51999;BME280;38015;50.924;11.598;2023-02-19T13:00:37;99999.79;;;22.25;28.31
51999;BME280;38015;50.924;11.598;2023-02-19T13:03:10;100003.72;;;22.29;28.25
51999;BME280;38015;50.924;11.598;2023-02-19T13:05:41;100007.30;;;22.22;28.39
51999;BME280;38015;50.924;11.598;2023-02-19T13:08:06;100008.67;;;22.32;28.21
51999;BME280;38015;50.924;11.598;2023-02-19T13:10:37;100006.45;;;22.38;28.11
51999;BME280;38015;50.924;11.598;2023-02-19T13:13:11;100001.32;;;22.36;28.14
51999;BME280;38015;50.924;11.598;2023-02-19T13:15:39;100003.37;;;22.36;28.13
51999;BME280;38015;50.924;11.598;2023-02-19T13:18:12;100005.65;;;22.38;28.09
51999;BME280;38015;50.924;11.598;2023-02-19T13:20:38;100006.52;;;22.43;28.00
51999;BME280;38015;50.924;11.598;2023-02-19T13:23:10;100011.00;;;22.29;28.23
51999;BME280;38015;50.924;11.598;2023-02-19T13:25:47;100007.10;;;22.17;28.50